Time;durP1;ratioP1;P1;durP2;ratioP2;P2;SDS_P1;SDS_P2;PMS_P1;PMS_P2;Temp;Humidity;BMP_temperature;BMP_pressure;BME280_temperature;BME280_humidity;BME280_pressure;Samples;Min_cycle;Max_cycle;Signal;HPM_P1;HPM_P2
2024/02/02 00:04:53;;;;;;;12.83;11.03;;;4.20;99.90;;;4.87;100.00;99477.56;10360811;28;20660;-65
2024/02/02 00:10:01;;;;;;;15.27;12.10;;;4.20;99.90;;;4.72;100.00;99476.81;10361202;28;20237;-65
2024/02/02 00:15:05;;;;;;;16.80;13.63;;;4.10;99.90;;;4.72;100.00;99475.19;10365774;28;20226;-65
2024/02/02 00:20:10;;;;;;;14.40;12.30;;;4.10;99.90;;;4.62;100.00;99469.00;10358778;28;20257;-66
2024/02/02 00:25:15;;;;;;;14.13;10.50;;;4.00;99.90;;;4.66;100.00;99483.75;10361067;28;20318;-65
2024/02/02 00:30:18;;;;;;;11.23;10.10;;;4.10;99.90;;;4.63;100.00;99484.34;10359120;28;20353;-65
2024/02/02 00:35:22;;;;;;;11.73;9.57;;;4.00;99.90;;;4.61;100.00;99470.63;10360164;28;20724;-65
2024/02/02 00:40:26;;;;;;;11.37;9.90;;;4.00;99.90;;;4.60;100.00;99462.84;10360459;28;20245;-64
2024/02/02 00:45:29;;;;;;;13.23;10.20;;;4.00;99.90;;;4.61;100.00;99459.63;10360602;28;21004;-65
2024/02/02 00:50:32;;;;;;;16.20;11.07;;;4.00;99.90;;;4.58;100.00;99460.19;10361184;28;20714;-65
2024/02/02 00:55:37;;;;;;;12.57;10.67;;;4.00;99.90;;;4.64;100.00;99470.06;10360616;28;20294;-65
2024/02/02 01:00:40;;;;;;;13.10;10.60;;;4.00;99.90;;;4.68;100.00;99467.09;10359672;28;20237;-66
2024/02/02 01:05:43;;;;;;;12.00;10.27;;;4.10;99.90;;;4.66;100.00;99472.00;10355882;28;20231;-66
2024/02/02 01:10:48;;;;;;;14.37;10.60;;;4.00;99.90;;;4.61;100.00;99469.75;10354682;28;20246;-66
2024/02/02 01:15:51;;;;;;;11.03;9.83;;;4.00;99.90;;;4.54;100.00;99460.56;10356315;28;20246;-66
2024/02/02 01:20:54;;;;;;;10.03;9.03;;;3.90;99.90;;;4.46;100.00;99461.38;10354746;28;20230;-66
2024/02/02 01:25:59;;;;;;;9.20;8.10;;;3.90;99.90;;;4.40;100.00;99453.16;10356078;28;20246;-66
2024/02/02 01:31:03;;;;;;;9.60;8.60;;;3.70;99.90;;;4.33;100.00;99445.66;10355895;28;20221;-66
2024/02/02 01:36:07;;;;;;;9.53;8.53;;;3.70;99.90;;;4.35;100.00;99440.03;10355497;28;20353;-66
2024/02/02 01:41:12;;;;;;;24.13;18.63;;;3.80;99.90;;;4.34;100.00;99434.78;10356405;28;20250;-66
2024/02/02 01:46:15;;;;;;;25.90;20.33;;;3.70;99.90;;;4.35;100.00;99434.97;10354365;28;20690;-66
2024/02/02 01:51:18;;;;;;;18.57;15.13;;;3.80;99.90;;;4.38;100.00;99425.16;10356479;28;20225;-66
2024/02/02 01:56:23;;;;;;;14.30;11.43;;;3.80;99.90;;;4.39;100.00;99437.06;10354949;28;20226;-66
2024/02/02 02:01:26;;;;;;;13.07;10.50;;;3.70;99.90;;;4.35;100.00;99429.91;10355648;28;20330;-66
2024/02/02 02:06:30;;;;;;;10.43;9.03;;;3.70;99.90;;;4.31;100.00;99422.69;10365913;28;20226;-66
2024/02/02 02:11:34;;;;;;;12.20;9.60;;;3.70;99.90;;;4.24;100.00;99420.25;10367857;28;20308;-65
2024/02/02 02:16:38;;;;;;;16.93;11.03;;;3.70;99.90;;;4.26;100.00;99418.78;10369046;28;20417;-66
2024/02/02 02:21:43;;;;;;;19.87;11.80;;;3.70;99.90;;;4.26;100.00;99416.25;10369983;28;20231;-66
2024/02/02 02:26:47;;;;;;;19.63;11.07;;;3.70;99.90;;;4.32;100.00;99423.59;10366976;28;20612;-65
2024/02/02 02:31:54;;;;;;;18.77;11.03;;;3.70;99.90;;;4.43;100.00;99423.97;10369229;28;20222;-66
2024/02/02 02:36:59;;;;;;;17.27;10.93;;;3.80;99.90;;;4.43;100.00;99420.56;10366733;28;20229;-66
2024/02/02 02:42:02;;;;;;;33.07;13.13;;;3.70;99.90;;;4.35;100.00;99408.72;10366872;28;20595;-66
2024/02/02 02:47:06;;;;;;;21.10;12.63;;;3.70;99.90;;;4.24;100.00;99405.06;10367669;28;20248;-65
2024/02/02 02:52:10;;;;;;;23.10;12.80;;;3.70;99.90;;;4.22;100.00;99406.53;10367753;28;20230;-66
2024/02/02 02:57:13;;;;;;;25.73;12.83;;;3.70;99.90;;;4.25;100.00;99399.28;10368289;28;20317;-65
2024/02/02 03:02:17;;;;;;;26.13;13.60;;;3.70;99.90;;;4.38;100.00;99392.25;10366973;28;20235;-65
2024/02/02 03:07:21;;;;;;;26.43;13.17;;;3.70;99.90;;;4.29;100.00;99398.84;10368406;28;20237;-66
2024/02/02 03:12:24;;;;;;;28.93;13.73;;;3.60;99.90;;;4.30;100.00;99395.59;10365658;28;20238;-66
2024/02/02 03:17:27;;;;;;;34.10;14.03;;;3.60;99.90;;;4.10;100.00;99401.06;10360640;28;20218;-66
2024/02/02 03:22:32;;;;;;;26.97;14.50;;;3.50;99.90;;;4.04;100.00;99403.84;10360921;28;20233;-66
2024/02/02 03:27:36;;;;;;;24.17;14.33;;;3.50;99.90;;;4.15;100.00;99405.00;10360382;28;20226;-66
2024/02/02 03:32:39;;;;;;;24.10;15.03;;;3.60;99.90;;;4.17;100.00;99406.03;10360311;28;20385;-66
2024/02/02 03:37:44;;;;;;;28.07;14.50;;;3.60;99.90;;;4.10;100.00;99406.13;10359284;28;20234;-65
2024/02/02 03:42:47;;;;;;;23.43;14.07;;;3.50;99.90;;;4.20;100.00;99408.00;10359609;28;21301;-65
2024/02/02 03:47:50;;;;;;;24.47;14.77;;;3.60;99.90;;;4.32;100.00;99406.78;10359364;28;20234;-65
2024/02/02 03:52:55;;;;;;;19.87;12.50;;;3.60;99.90;;;4.12;100.00;99403.75;10359089;28;20230;-66
2024/02/02 03:57:58;;;;;;;22.67;13.57;;;3.50;99.90;;;4.03;100.00;99409.66;10360697;28;20226;-65
2024/02/02 04:03:01;;;;;;;22.87;14.50;;;3.50;99.90;;;4.03;100.00;99414.72;10356316;28;20228;-66
2024/02/02 04:08:07;;;;;;;24.20;14.43;;;3.50;99.90;;;4.17;100.00;99415.25;10358668;28;20706;-66
2024/02/02 04:13:10;;;;;;;22.63;13.83;;;3.60;99.90;;;4.22;100.00;99412.50;10356203;28;20245;-66
2024/02/02 04:18:13;;;;;;;18.60;13.77;;;3.60;99.90;;;4.11;100.00;99417.16;10357663;28;21121;-66
2024/02/02 04:23:18;;;;;;;17.53;13.03;;;3.50;99.90;;;4.10;100.00;99411.19;10356925;28;20230;-66
2024/02/02 04:28:21;;;;;;;17.80;12.43;;;3.60;99.90;;;4.23;100.00;99428.56;10356969;28;20230;-66
2024/02/02 04:33:24;;;;;;;18.27;13.60;;;3.70;99.90;;;4.28;100.00;99422.38;10357533;28;20230;-65
2024/02/02 04:38:29;;;;;;;17.77;13.47;;;3.70;99.90;;;4.38;100.00;99420.09;10355900;28;20232;-65
2024/02/02 04:43:32;;;;;;;19.53;13.93;;;3.70;99.90;;;4.39;100.00;99421.88;10354509;28;20233;-65
2024/02/02 04:48:35;;;;;;;17.30;13.40;;;3.70;99.90;;;4.41;100.00;99419.53;10358373;28;20218;-66
2024/02/02 04:53:40;;;;;;;20.67;13.30;;;3.70;99.90;;;4.32;100.00;99421.06;10365546;28;20230;-66
2024/02/02 04:58:43;;;;;;;17.00;12.77;;;3.70;99.90;;;4.33;100.00;99426.28;10361013;28;20226;-66
2024/02/02 05:03:46;;;;;;;13.13;10.87;;;3.70;99.90;;;4.25;100.00;99439.75;10360622;28;20965;-66
2024/02/02 05:08:52;;;;;;;13.53;11.30;;;3.70;99.90;;;4.33;100.00;99444.00;10361684;28;20258;-66
2024/02/02 05:13:55;;;;;;;14.63;11.27;;;3.80;99.90;;;4.36;100.00;99431.69;10356360;28;20280;-66
2024/02/02 05:18:58;;;;;;;14.73;11.07;;;3.80;99.90;;;4.37;100.00;99436.00;10357242;28;20222;-66
2024/02/02 05:24:04;;;;;;;14.40;11.53;;;3.80;99.90;;;4.29;100.00;99449.47;10353284;28;22134;-65
2024/02/02 05:29:27;;;;;;;12.17;10.40;;;3.70;99.90;;;4.27;100.00;99456.00;10352715;28;20222;-67
2024/02/02 05:34:30;;;;;;;14.20;11.47;;;3.70;99.90;;;4.32;100.00;99464.06;10357423;28;20230;-66
2024/02/02 05:39:35;;;;;;;12.80;10.87;;;3.70;99.90;;;4.29;100.00;99462.13;10361904;28;20920;-66
2024/02/02 05:44:38;;;;;;;13.03;10.60;;;3.70;99.90;;;4.29;100.00;99479.84;10347150;28;20245;-66
2024/02/02 05:49:41;;;;;;;14.00;9.90;;;3.70;99.90;;;4.37;100.00;99483.19;10359316;28;20340;-66
2024/02/02 05:54:46;;;;;;;13.00;10.73;;;3.80;99.90;;;4.42;100.00;99482.06;10360594;28;20237;-66
2024/02/02 05:59:49;;;;;;;11.83;10.60;;;3.80;99.90;;;4.45;100.00;99495.94;10356705;28;20223;-67
2024/02/02 06:04:52;;;;;;;12.87;11.33;;;3.80;99.90;;;4.50;100.00;99486.31;10356265;28;20782;-66
2024/02/02 06:09:57;;;;;;;14.50;11.10;;;3.80;99.90;;;4.39;100.00;99482.63;10357416;28;20230;-66
2024/02/02 06:15:00;;;;;;;11.93;10.73;;;3.80;99.90;;;4.30;100.00;99481.66;10358627;28;20234;-66
2024/02/02 06:20:04;;;;;;;11.30;10.10;;;3.80;99.90;;;4.39;100.00;99481.72;10355114;28;20262;-67
2024/02/02 06:25:09;;;;;;;13.90;11.80;;;3.80;99.90;;;4.45;100.00;99473.16;10348060;28;20313;-66
2024/02/02 06:30:14;;;;;;;14.13;11.63;;;3.90;99.90;;;4.51;100.00;99472.91;10354144;28;20226;-66
2024/02/02 06:35:17;;;;;;;68.77;34.03;;;3.90;99.90;;;4.47;100.00;99486.88;10352767;28;20237;-66
2024/02/02 06:40:22;;;;;;;17.83;13.40;;;3.90;99.90;;;4.42;100.00;99497.25;10358009;28;20222;-67
2024/02/02 06:45:26;;;;;;;14.03;12.17;;;3.90;99.90;;;4.52;100.00;99489.88;10359651;28;20234;-67
2024/02/02 06:50:30;;;;;;;14.73;12.30;;;3.90;99.90;;;4.56;100.00;99502.16;10356477;28;20581;-67
2024/02/02 06:55:35;;;;;;;17.33;12.97;;;4.00;99.90;;;4.61;100.00;99510.25;10367531;28;20313;-67
2024/02/02 07:00:38;;;;;;;15.37;12.40;;;4.00;99.90;;;4.59;100.00;99521.84;10368798;28;20227;-67
2024/02/02 07:05:44;;;;;;;14.90;12.57;;;3.90;99.90;;;4.63;100.00;99513.81;10365703;28;20234;-67
2024/02/02 07:11:09;;;;;;;25.97;16.47;;;4.00;99.90;;;4.58;100.00;99520.03;10364509;28;20234;-67
2024/02/02 07:16:15;;;;;;;25.43;16.87;;;4.00;99.90;;;4.56;100.00;99524.06;10373849;28;20711;-68
2024/02/02 07:21:18;;;;;;;24.17;17.73;;;4.00;99.90;;;4.54;100.00;99528.94;10368089;28;20241;-67
2024/02/02 07:26:28;;;;;;;28.60;20.17;;;4.00;99.90;;;4.56;100.00;99529.13;10376570;28;20662;-67
2024/02/02 07:31:37;;;;;;;17.80;14.23;;;4.00;99.90;;;4.62;100.00;99547.50;10369885;28;20230;-67
2024/02/02 07:36:40;;;;;;;16.97;14.57;;;4.10;99.90;;;4.58;100.00;99545.34;10367617;28;20721;-67
2024/02/02 07:41:45;;;;;;;15.27;13.53;;;4.10;99.90;;;4.63;100.00;99546.75;10376736;28;20587;-67
2024/02/02 07:46:48;;;;;;;15.73;13.83;;;4.10;99.90;;;4.65;100.00;99543.66;10370719;28;20245;-67
2024/02/02 07:51:51;;;;;;;15.60;13.53;;;4.10;99.90;;;4.77;100.00;99526.31;10369244;28;20609;-67
2024/02/02 07:56:55;;;;;;;18.07;15.03;;;4.20;99.90;;;4.74;100.00;99508.28;10365798;28;20233;-67
2024/02/02 08:01:58;;;;;;;17.50;13.80;;;4.20;99.90;;;4.80;100.00;99483.59;10363720;28;20241;-67
2024/02/02 08:07:02;;;;;;;18.20;15.33;;;4.20;99.90;;;4.74;100.00;99482.94;10364762;28;20233;-67
2024/02/02 08:12:08;;;;;;;18.93;15.53;;;4.20;99.90;;;4.79;100.00;99479.25;10365702;28;20946;-67
2024/02/02 08:17:11;;;;;;;20.07;16.97;;;4.20;99.90;;;4.83;100.00;99480.47;10369545;28;20226;-67
2024/02/02 08:22:14;;;;;;;18.70;16.00;;;4.30;99.90;;;4.89;100.00;99484.59;10361289;28;20240;-67
2024/02/02 08:27:19;;;;;;;19.80;16.50;;;4.40;99.90;;;4.96;100.00;99487.00;10362325;28;20240;-67
2024/02/02 08:32:23;;;;;;;20.37;16.57;;;4.50;99.90;;;5.22;100.00;99485.41;10361643;28;20242;-67
2024/02/02 08:37:26;;;;;;;19.73;15.90;;;4.60;99.90;;;5.28;100.00;99480.97;10364760;28;20335;-67
2024/02/02 08:42:31;;;;;;;19.73;17.00;;;4.60;99.90;;;5.32;100.00;99473.84;10363696;28;20226;-67
2024/02/02 08:47:36;;;;;;;19.20;16.77;;;4.60;99.90;;;5.25;100.00;99476.47;10367862;28;20709;-67
2024/02/02 08:52:43;;;;;;;18.93;16.57;;;4.60;99.90;;;5.15;100.00;99472.09;10361402;28;20234;-67
2024/02/02 08:58:08;;;;;;;20.03;17.73;;;4.60;99.90;;;5.22;100.00;99476.16;10365776;28;20222;-68
2024/02/02 09:03:26;;;;;;;20.93;17.77;;;4.70;99.90;;;5.43;100.00;99473.28;10313007;28;20632;-67
2024/02/02 09:08:34;;;;;;;29.53;25.43;;;4.80;99.90;;;5.48;100.00;99480.47;10312512;28;20222;-67
2024/02/02 09:13:40;;;;;;;19.63;16.70;;;4.90;99.90;;;5.50;100.00;99490.03;10320686;28;20722;-67
2024/02/02 09:18:45;;;;;;;18.30;15.60;;;4.90;99.90;;;5.52;100.00;99497.78;10341192;28;20229;-67
2024/02/02 09:23:50;;;;;;;15.30;13.70;;;5.00;99.90;;;5.62;100.00;99498.00;10346679;28;20239;-67
2024/02/02 09:28:59;;;;;;;19.87;15.83;;;5.10;99.90;;;5.82;100.00;99485.72;10345906;28;20222;-67
2024/02/02 09:34:08;;;;;;;19.13;17.00;;;5.20;99.90;;;5.78;100.00;99483.63;10343879;28;20304;-67
2024/02/02 09:39:46;;;;;;;21.70;17.93;;;5.20;99.90;;;5.72;100.00;99498.19;10352512;28;20296;-67
2024/02/02 09:44:58;;;;;;;23.87;21.37;;;5.20;99.90;;;5.90;100.00;99503.38;10344224;28;20230;-67
2024/02/02 09:50:23;;;;;;;20.57;17.00;;;5.40;99.90;;;6.04;100.00;99503.19;10335087;28;20877;-67
2024/02/02 09:55:35;;;;;;;19.13;16.30;;;5.50;99.90;;;6.24;100.00;99503.53;10346631;28;20337;-67
2024/02/02 10:00:50;;;;;;;19.63;17.53;;;5.60;99.90;;;6.32;100.00;99476.34;10349938;28;20237;-67
2024/02/02 10:06:10;;;;;;;19.00;17.07;;;5.60;99.90;;;6.37;100.00;99479.34;10349950;28;20244;-67
2024/02/02 10:11:35;;;;;;;23.33;18.77;;;5.70;99.90;;;6.34;100.00;99491.75;10319482;28;20309;-67
2024/02/02 10:16:52;;;;;;;19.60;17.50;;;5.80;99.90;;;6.47;100.00;99495.66;10316926;28;20231;-67
2024/02/02 10:22:18;;;;;;;23.37;19.40;;;5.90;99.90;;;6.71;100.00;99474.31;10349420;28;20260;-67
2024/02/02 10:27:37;;;;;;;19.87;16.90;;;6.20;99.90;;;6.85;100.00;99492.56;10354207;28;20677;-67
2024/02/02 10:33:05;;;;;;;21.53;17.30;;;6.20;99.90;;;7.04;100.00;99486.00;10359190;28;20244;-67
2024/02/02 10:38:27;;;;;;;18.70;16.83;;;6.30;99.90;;;7.19;100.00;99466.22;10363840;28;20226;-68
2024/02/02 10:43:45;;;;;;;20.70;14.87;;;6.40;99.90;;;7.44;100.00;99469.47;10357568;28;20247;-67
2024/02/02 10:49:19;;;;;;;15.60;13.97;;;6.70;99.90;;;7.52;100.00;99468.53;10351210;28;20230;-67
2024/02/02 10:54:53;;;;;;;14.50;13.10;;;6.90;99.90;;;7.81;100.00;99450.94;10350434;28;22756;-67
2024/02/02 11:00:11;;;;;;;15.73;12.93;;;7.10;99.90;;;7.97;100.00;99425.22;10355462;28;20226;-67
2024/02/02 11:05:24;;;;;;;15.13;12.80;;;7.30;99.90;;;8.18;100.00;99420.31;10351783;28;20660;-67
2024/02/02 11:10:34;;;;;;;13.73;12.40;;;7.50;99.90;;;8.41;100.00;99400.41;10352378;28;20265;-66
2024/02/02 11:15:52;;;;;;;14.18;12.55;;;7.70;99.90;;;8.66;100.00;99390.75;10361652;28;20327;-67
2024/02/02 11:21:13;;;;;;;12.00;10.90;;;8.20;99.90;;;9.00;100.00;99375.91;10363075;28;20230;-67
2024/02/02 11:26:21;;;;;;;11.00;9.93;;;8.40;99.90;;;9.26;100.00;99375.63;10358002;28;20233;-66
2024/02/02 11:31:51;;;;;;;8.43;7.63;;;8.70;99.90;;;9.55;100.00;99390.88;10355776;28;20721;-67
2024/02/02 11:37:08;;;;;;;8.20;7.50;;;9.10;99.90;;;9.61;100.00;99376.06;10352746;28;20865;-67
2024/02/02 11:42:14;;;;;;;8.90;8.00;;;9.10;99.90;;;9.68;100.00;99367.31;10356969;28;20222;-66
2024/02/02 11:47:19;;;;;;;7.10;6.40;;;9.20;99.90;;;9.67;100.00;99355.28;10358148;28;20233;-67
2024/02/02 11:52:31;;;;;;;8.30;7.22;;;9.30;99.90;;;9.60;100.00;99353.00;10351073;28;20322;-67
2024/02/02 11:57:40;;;;;;;7.10;6.57;;;9.30;99.90;;;9.66;100.00;99348.41;10358780;28;20231;-67
2024/02/02 12:03:14;;;;;;;6.90;6.30;;;9.20;99.90;;;9.84;100.00;99344.88;10352844;28;20237;-67
2024/02/02 12:08:29;;;;;;;7.65;6.43;;;9.40;99.90;;;9.87;100.00;99334.91;10349628;28;20239;-67
2024/02/02 12:13:32;;;;;;;6.70;6.10;;;9.40;99.90;;;9.94;98.65;99336.28;10357856;28;20245;-68
2024/02/02 12:18:37;;;;;;;6.07;5.47;;;9.40;99.90;;;10.03;100.00;99331.94;10351737;28;20728;-67
2024/02/02 12:23:42;;;;;;;6.43;5.80;;;9.40;99.90;;;10.07;100.00;99317.75;10353695;28;20234;-66
2024/02/02 12:28:45;;;;;;;6.22;5.63;;;9.50;99.90;;;10.05;99.90;99303.97;10359663;28;20228;-67
2024/02/02 12:33:49;;;;;;;5.95;5.45;;;9.50;99.90;;;10.18;95.45;99301.66;10350071;28;20238;-67
2024/02/02 12:38:58;;;;;;;5.45;4.90;;;9.70;99.90;;;10.23;95.03;99297.81;10351871;28;20238;-67
2024/02/02 12:44:01;;;;;;;4.97;4.50;;;9.70;99.90;;;10.34;95.12;99284.28;10356700;28;20258;-67
2024/02/02 12:49:05;;;;;;;4.80;4.40;;;9.90;99.90;;;10.41;93.90;99277.09;10350008;28;20686;-66
2024/02/02 12:54:10;;;;;;;4.50;4.13;;;9.90;99.90;;;10.36;93.55;99275.09;10351832;28;20287;-67
2024/02/02 12:59:17;;;;;;;4.35;3.95;;;9.90;99.90;;;10.58;95.10;99274.22;10349177;28;20219;-67
2024/02/02 13:04:21;;;;;;;4.13;3.80;;;9.90;99.90;;;10.63;88.78;99272.06;10351883;28;20257;-67
2024/02/02 13:09:31;;;;;;;4.35;3.95;;;10.00;99.90;;;10.60;91.37;99272.69;10349833;28;20309;-67
2024/02/02 13:14:36;;;;;;;3.95;3.65;;;9.90;99.90;;;10.76;89.78;99260.38;10348038;28;20268;-67
2024/02/02 13:19:44;;;;;;;3.42;3.20;;;10.10;99.90;;;10.89;85.49;99264.75;10357596;28;20226;-66
2024/02/02 13:24:53;;;;;;;3.30;3.05;;;10.20;99.90;;;10.97;83.49;99257.69;10355373;28;20222;-67
2024/02/02 13:29:59;;;;;;;2.90;2.70;;;10.30;99.90;;;10.90;82.60;99255.41;10356164;28;20748;-67
2024/02/02 13:35:08;;;;;;;2.72;2.53;;;10.30;99.90;;;10.82;80.09;99255.72;10360111;28;20716;-66
2024/02/02 13:40:13;;;;;;;3.58;2.72;;;10.20;99.90;;;10.94;80.17;99249.78;10360238;28;20246;-67
2024/02/02 13:45:16;;;;;;;2.95;2.75;;;10.30;99.90;;;10.94;76.41;99237.00;10360505;28;20361;-67
2024/02/02 13:50:29;;;;;;;3.72;2.58;;;10.40;99.90;;;10.92;77.37;99221.50;10358614;28;20608;-67
2024/02/02 13:55:35;;;;;;;2.70;2.50;;;10.20;99.90;;;10.81;77.16;99218.13;10360714;28;20598;-66
2024/02/02 14:00:38;;;;;;;2.88;2.58;;;10.10;99.90;;;10.83;79.31;99215.69;10357670;28;20784;-66
2024/02/02 14:05:42;;;;;;;2.83;2.63;;;10.10;99.90;;;10.93;77.19;99207.06;10355750;28;20219;-66
2024/02/02 14:10:49;;;;;;;3.38;2.80;;;10.30;99.90;;;10.78;78.89;99202.53;10352614;28;20226;-66
2024/02/02 14:15:55;;;;;;;2.90;2.70;;;10.10;99.90;;;10.92;80.07;99195.06;10360610;28;20234;-66
2024/02/02 14:20:58;;;;;;;4.00;3.60;;;10.20;99.90;;;11.00;77.79;99194.88;10358710;28;20301;-66
2024/02/02 14:26:09;;;;;;;2.92;2.72;;;10.30;99.90;;;10.92;77.87;99187.38;10347554;28;20242;-66
2024/02/02 14:31:12;;;;;;;3.45;3.17;;;10.40;99.90;;;10.99;75.69;99187.09;10353843;28;20373;-66
2024/02/02 14:36:15;;;;;;;3.30;3.10;;;10.50;99.90;;;10.86;77.28;99181.78;10353485;28;20229;-67
2024/02/02 14:41:20;;;;;;;9.43;6.45;;;10.20;99.90;;;10.86;77.33;99176.69;10352319;28;20301;-66
2024/02/02 14:46:23;;;;;;;7.85;5.05;;;10.10;99.90;;;10.75;77.37;99170.72;10348146;28;20239;-66
2024/02/02 14:51:26;;;;;;;3.47;3.13;;;10.10;99.90;;;10.63;76.56;99175.78;10352645;28;20229;-66
2024/02/02 14:56:31;;;;;;;3.10;2.75;;;9.90;99.90;;;10.55;78.04;99176.84;10349873;28;20734;-66
2024/02/02 15:01:35;;;;;;;2.72;2.53;;;9.70;99.90;;;10.55;75.26;99182.84;10350569;28;20710;-66
2024/02/02 15:06:39;;;;;;;2.58;2.38;;;9.80;99.90;;;10.46;75.81;99194.91;10348526;28;20234;-66
2024/02/02 15:11:44;;;;;;;2.83;2.58;;;9.70;99.90;;;10.29;76.38;99187.56;10354722;28;20230;-66
2024/02/02 15:16:48;;;;;;;2.80;2.58;;;9.60;99.90;;;10.17;77.12;99177.22;10345221;28;20234;-66
2024/02/02 15:21:51;;;;;;;2.53;2.33;;;9.50;99.90;;;10.17;75.67;99191.69;10361675;28;20230;-66
2024/02/02 15:26:57;;;;;;;2.58;2.38;;;9.40;99.90;;;10.00;75.36;99205.66;10351393;28;20691;-66
2024/02/02 15:32:00;;;;;;;2.85;2.05;;;9.30;99.90;;;9.70;78.63;99203.28;10357769;28;20235;-66
2024/02/02 15:37:04;;;;;;;2.55;2.45;;;9.00;99.90;;;9.76;79.02;99202.88;10360045;28;20897;-66
2024/02/02 15:42:08;;;;;;;3.03;2.83;;;8.90;99.90;;;9.48;80.96;99203.16;10360512;28;20227;-66
2024/02/02 15:47:11;;;;;;;3.00;2.80;;;8.70;99.90;;;9.27;81.95;99203.94;10351837;28;20222;-66
2024/02/02 15:52:15;;;;;;;3.33;3.03;;;8.50;99.90;;;9.03;80.42;99203.63;10354882;28;20226;-66
2024/02/02 15:57:19;;;;;;;3.10;2.90;;;8.40;99.90;;;9.01;81.54;99215.38;10353042;28;20588;-66
2024/02/02 16:02:22;;;;;;;3.85;3.30;;;8.30;99.90;;;8.97;82.44;99213.31;10345803;28;20300;-66
2024/02/02 16:07:26;;;;;;;3.30;3.08;;;8.20;99.90;;;8.83;81.07;99208.69;10349703;28;20253;-66
2024/02/02 16:12:31;;;;;;;3.30;3.10;;;8.10;99.90;;;8.67;80.79;99210.69;10349313;28;20707;-66
2024/02/02 16:17:36;;;;;;;3.35;3.13;;;8.00;99.90;;;8.61;80.80;99200.84;10355764;28;20231;-67
2024/02/02 16:22:41;;;;;;;3.83;3.53;;;7.90;99.90;;;8.53;81.11;99200.22;10352859;28;20234;-67
2024/02/02 16:27:46;;;;;;;4.22;3.92;;;7.80;99.90;;;8.47;81.49;99207.34;10353922;28;20312;-66
2024/02/02 16:32:49;;;;;;;3.70;3.17;;;7.80;99.90;;;8.40;80.33;99191.38;10349202;28;20234;-66
2024/02/02 16:37:52;;;;;;;3.95;3.55;;;7.70;99.90;;;8.26;79.40;99185.94;10352893;28;20318;-66
2024/02/02 16:42:57;;;;;;;4.13;3.83;;;7.60;99.90;;;8.16;79.11;99192.66;10354626;28;20230;-66
2024/02/02 16:48:00;;;;;;;3.40;3.10;;;7.50;99.90;;;8.08;78.07;99180.13;10354136;28;20290;-66
2024/02/02 16:53:04;;;;;;;3.20;2.90;;;7.40;99.90;;;8.05;79.00;99176.41;10353444;28;20343;-66
2024/02/02 16:58:08;;;;;;;3.70;3.50;;;7.40;99.90;;;7.99;77.84;99191.16;10347232;28;20229;-66
2024/02/02 17:03:11;;;;;;;3.10;2.90;;;7.40;99.90;;;7.93;77.95;99201.69;10354869;28;20234;-66
2024/02/02 17:08:15;;;;;;;2.97;2.80;;;7.30;99.90;;;7.89;77.34;99207.25;10350230;28;20317;-66
2024/02/02 17:13:21;;;;;;;3.10;2.90;;;7.30;99.90;;;7.85;77.93;99210.28;10357755;28;20274;-66
2024/02/02 17:18:24;;;;;;;3.00;2.80;;;7.30;99.90;;;7.83;77.95;99214.34;10354889;28;20241;-66
2024/02/02 17:23:27;;;;;;;3.30;3.10;;;7.20;99.90;;;7.79;79.32;99230.13;10359616;28;20238;-66
2024/02/02 17:28:32;;;;;;;3.53;3.23;;;7.10;99.90;;;7.78;78.70;99220.66;10351894;28;20615;-66
2024/02/02 17:33:35;;;;;;;3.23;3.03;;;7.10;99.90;;;7.76;77.22;99212.91;10353713;28;20231;-66
2024/02/02 17:38:40;;;;;;;3.60;3.30;;;7.10;99.90;;;7.72;77.29;99212.47;10357593;28;20651;-66
2024/02/02 17:43:46;;;;;;;3.50;3.20;;;7.10;99.90;;;7.67;75.33;99199.38;10351731;28;20246;-66
2024/02/02 17:48:50;;;;;;;2.47;2.37;;;7.10;99.90;;;7.65;75.56;99203.41;10359364;28;20236;-66
2024/02/02 17:53:54;;;;;;;2.80;2.70;;;7.00;99.90;;;7.61;76.39;99201.34;10353646;28;20747;-66
2024/02/02 17:58:58;;;;;;;3.40;3.17;;;7.00;99.90;;;7.50;77.56;99202.94;10349935;28;20256;-66
2024/02/02 18:04:02;;;;;;;3.30;3.10;;;6.90;99.90;;;7.49;76.81;99206.22;10347498;28;20356;-66
2024/02/02 18:09:06;;;;;;;3.33;3.13;;;6.90;99.90;;;7.53;78.63;99197.22;10345398;28;20234;-66
2024/02/02 18:14:11;;;;;;;3.77;3.50;;;6.80;99.90;;;7.35;77.52;99181.19;10350053;28;20283;-67
2024/02/02 18:19:14;;;;;;;3.80;3.50;;;6.70;99.90;;;7.31;74.84;99191.84;10341589;28;20671;-66
2024/02/02 18:24:18;;;;;;;3.10;2.90;;;6.60;99.90;;;7.24;75.86;99200.56;10338092;28;20273;-67
2024/02/02 18:29:22;;;;;;;3.37;3.17;;;6.60;99.90;;;7.33;75.96;99197.97;10338031;28;20237;-66
2024/02/02 18:34:25;;;;;;;7.70;7.00;;;6.70;99.90;;;7.38;76.43;99191.63;10349571;28;20608;-67
2024/02/02 18:39:29;;;;;;;4.47;4.07;;;6.70;99.90;;;7.28;77.63;99200.06;10344135;28;20222;-67
2024/02/02 18:44:33;;;;;;;5.20;4.70;;;6.60;99.90;;;7.16;78.49;99199.84;10341804;28;20699;-68
2024/02/02 18:49:38;;;;;;;4.67;4.27;;;6.50;99.90;;;7.36;77.39;99208.41;10347733;28;20226;-65
2024/02/02 18:54:41;;;;;;;3.10;2.90;;;6.60;99.90;;;7.44;76.52;99194.75;10349479;28;20232;-66
2024/02/02 18:59:46;;;;;;;4.43;3.60;;;6.90;99.90;;;7.46;76.81;99190.69;10347205;28;20227;-66
2024/02/02 19:04:49;;;;;;;3.23;3.03;;;6.90;99.90;;;7.60;76.99;99186.84;10352040;28;21217;-66
2024/02/02 19:09:52;;;;;;;4.27;3.87;;;7.10;99.90;;;7.65;77.41;99185.59;10351587;28;20416;-66
2024/02/02 19:14:58;;;;;;;4.73;4.33;;;7.10;99.90;;;7.70;76.96;99178.38;10353588;28;20234;-67
2024/02/02 19:20:01;;;;;;;3.90;3.60;;;7.20;99.90;;;7.75;76.38;99172.03;10352752;28;20237;-66
2024/02/02 19:25:05;;;;;;;4.20;3.90;;;7.10;99.90;;;7.77;75.29;99176.50;10353491;28;20222;-66
2024/02/02 19:30:12;;;;;;;3.67;3.37;;;7.20;99.90;;;7.82;77.24;99177.81;10348960;28;20230;-67
2024/02/02 19:35:15;;;;;;;3.37;3.17;;;7.20;99.90;;;7.89;75.50;99171.63;10353370;28;20586;-66
2024/02/02 19:40:18;;;;;;;3.40;3.20;;;7.40;99.90;;;8.01;76.29;99174.34;10358128;28;20230;-67
2024/02/02 19:45:23;;;;;;;3.50;3.30;;;7.40;99.90;;;7.97;75.73;99165.56;10370966;22;20230;-62
2024/02/02 19:50:26;;;;;;;3.93;3.63;;;7.40;99.90;;;8.01;74.95;99167.63;10337040;28;20301;-62
2024/02/02 19:55:30;;;;;;;3.73;3.33;;;7.40;99.90;;;7.98;76.04;99166.44;10350136;28;20230;-63
2024/02/02 20:00:35;;;;;;;4.40;4.00;;;7.40;99.90;;;7.86;76.02;99171.34;10353683;28;20597;-63
2024/02/02 20:05:38;;;;;;;3.97;3.47;;;7.30;99.90;;;8.02;74.51;99174.50;10359195;28;20226;-63
2024/02/02 20:10:41;;;;;;;5.07;4.57;;;7.40;99.90;;;8.03;75.15;99175.38;10347878;28;20233;-63
2024/02/02 20:15:47;;;;;;;4.17;3.60;;;7.40;99.90;;;7.99;73.94;99179.31;10344766;28;20227;-63
2024/02/02 20:20:53;;;;;;;3.10;2.67;;;7.40;99.90;;;8.01;73.92;99170.19;10350032;28;20579;-63
2024/02/02 20:25:56;;;;;;;3.87;3.50;;;7.40;99.90;;;7.99;73.77;99164.03;10353031;28;20240;-63
2024/02/02 20:31:02;;;;;;;3.40;3.10;;;7.40;99.90;;;8.00;72.96;99164.94;10352549;28;20230;-62
2024/02/02 20:36:06;;;;;;;3.73;3.40;;;7.40;99.90;;;7.83;74.49;99158.34;10351317;28;20223;-65
2024/02/02 20:41:09;;;;;;;4.00;3.70;;;7.20;99.90;;;7.71;75.43;99170.00;10353277;28;20317;-61
2024/02/02 20:46:14;;;;;;;4.10;3.80;;;7.10;99.90;;;7.65;74.98;99163.59;10353912;28;20610;-61
2024/02/02 20:51:17;;;;;;;3.67;3.37;;;7.00;99.90;;;7.65;74.18;99161.03;10353788;28;20732;-63
2024/02/02 20:56:20;;;;;;;3.10;2.90;;;7.00;99.90;;;7.67;73.64;99161.19;10352778;28;20226;-64
2024/02/02 21:01:25;;;;;;;3.20;3.00;;;7.10;99.90;;;7.76;72.71;99158.56;10350780;28;20325;-64
2024/02/02 21:06:28;;;;;;;3.10;2.90;;;7.20;99.90;;;7.72;72.97;99154.84;10348217;28;20653;-64
2024/02/02 21:11:32;;;;;;;3.23;3.03;;;7.10;99.90;;;7.85;71.50;99151.75;10349689;28;20660;-63
2024/02/02 21:16:36;;;;;;;3.33;3.13;;;7.20;99.90;;;7.80;72.11;99156.41;10352757;28;20689;-62